Time;durP1;ratioP1;P1;durP2;ratioP2;P2;SDS_P1;SDS_P2;PMS_P1;PMS_P2;Temp;Humidity;BMP_temperature;BMP_pressure;BME280_temperature;BME280_humidity;BME280_pressure;Samples;Min_cycle;Max_cycle;Signal;HPM_P1;HPM_P2
2022/04/20 00:00:09;;;;;;;3.20;2.47;;;11.00;81.00;;;;;;5021618;28;21150;-72
2022/04/20 00:02:36;;;;;;;3.73;2.07;;;11.00;80.50;;;;;;5028436;28;20860;-73
2022/04/20 00:05:03;;;;;;;3.43;2.50;;;11.00;80.30;;;;;;5033829;28;20434;-73
2022/04/20 00:07:31;;;;;;;3.83;2.30;;;11.10;79.60;;;;;;5023004;28;20464;-74
2022/04/20 00:10:01;;;;;;;3.20;2.83;;;11.00;80.30;;;;;;5031298;28;20466;-73
2022/04/20 00:12:29;;;;;;;4.50;2.47;;;11.00;81.60;;;;;;5026762;28;21336;-74
2022/04/20 00:14:59;;;;;;;3.67;2.30;;;11.00;83.50;;;;;;5030005;28;20457;-74
2022/04/20 00:17:25;;;;;;;3.53;2.00;;;11.00;85.60;;;;;;5018039;28;20437;-73
2022/04/20 00:19:52;;;;;;;2.33;1.93;;;10.90;86.70;;;;;;5026427;28;20579;-74
2022/04/20 00:22:19;;;;;;;2.00;1.80;;;10.90;88.40;;;;;;5029442;28;20464;-74
2022/04/20 00:24:48;;;;;;;1.73;1.57;;;10.90;88.80;;;;;;5036160;28;20487;-73
2022/04/20 00:27:15;;;;;;;2.27;1.73;;;10.80;90.30;;;;;;5026449;28;20442;-74
2022/04/20 00:29:44;;;;;;;5.40;2.30;;;10.70;90.30;;;;;;5020065;28;20473;-74
2022/04/20 00:32:14;;;;;;;2.63;2.23;;;10.60;90.40;;;;;;5033506;28;20838;-74
2022/04/20 00:34:40;;;;;;;5.17;2.80;;;10.50;91.90;;;;;;5024759;28;20439;-74
2022/04/20 00:37:07;;;;;;;1.97;1.37;;;10.50;92.80;;;;;;5030669;28;20557;-74
2022/04/20 00:39:36;;;;;;;2.57;1.70;;;10.40;93.00;;;;;;5038893;28;20497;-73
2022/04/20 00:42:07;;;;;;;4.87;2.30;;;10.30;93.70;;;;;;5033141;28;20463;-74
2022/04/20 00:44:34;;;;;;;2.63;2.13;;;9.70;94.00;;;;;;5032677;28;20518;-74
2022/04/20 00:47:02;;;;;;;3.53;2.23;;;9.60;95.30;;;;;;5023924;28;20479;-74
2022/04/20 00:49:32;;;;;;;3.80;2.10;;;9.30;96.80;;;;;;5026908;28;20467;-74
2022/04/20 00:52:04;;;;;;;2.47;2.00;;;9.40;99.70;;;;;;5031954;28;20863;-74
2022/04/20 00:54:32;;;;;;;2.70;1.70;;;9.60;99.90;;;;;;5031672;28;20771;-74
2022/04/20 00:56:59;;;;;;;7.20;2.93;;;9.60;99.90;;;;;;5032111;28;21476;-74
2022/04/20 00:59:29;;;;;;;4.47;3.40;;;9.60;99.90;;;;;;5029591;28;20529;-74
2022/04/20 01:01:56;;;;;;;4.17;2.47;;;9.70;99.90;;;;;;5017875;28;20465;-75
2022/04/20 01:04:28;;;;;;;6.33;3.20;;;9.80;99.90;;;;;;5025206;28;20511;-74
2022/04/20 01:07:00;;;;;;;5.90;2.20;;;9.80;99.90;;;;;;5025897;28;20949;-73
2022/04/20 01:09:27;;;;;;;5.20;3.40;;;9.70;99.90;;;;;;5023259;28;20468;-74
2022/04/20 01:11:57;;;;;;;3.83;2.77;;;9.70;99.90;;;;;;5023866;28;20527;-73
2022/04/20 01:14:24;;;;;;;3.67;2.30;;;9.70;99.90;;;;;;5024931;28;20461;-74
2022/04/20 01:16:52;;;;;;;4.37;2.40;;;9.80;99.90;;;;;;5029433;28;20903;-73
2022/04/20 01:19:19;;;;;;;2.80;2.60;;;9.70;99.90;;;;;;5027828;28;20435;-74
2022/04/20 01:21:47;;;;;;;2.37;1.50;;;9.60;99.90;;;;;;5022369;28;20843;-74
2022/04/20 01:24:14;;;;;;;8.60;4.00;;;9.50;99.90;;;;;;5016658;28;20845;-74
2022/04/20 01:26:44;;;;;;;2.27;2.00;;;9.40;99.90;;;;;;5027762;28;21023;-74
2022/04/20 01:29:12;;;;;;;3.90;2.20;;;9.40;99.90;;;;;;5030182;28;20658;-74
2022/04/20 01:31:38;;;;;;;3.03;2.57;;;9.40;99.90;;;;;;5022297;28;20462;-73
2022/04/20 01:34:05;;;;;;;2.30;1.93;;;9.50;99.90;;;;;;5025858;28;20537;-73
2022/04/20 01:36:31;;;;;;;2.80;2.17;;;9.30;99.90;;;;;;5032590;28;20495;-73
2022/04/20 01:38:59;;;;;;;3.53;2.03;;;8.80;99.90;;;;;;5028253;28;20474;-74
2022/04/20 01:41:26;;;;;;;3.30;2.30;;;8.40;99.90;;;;;;5037786;28;20434;-74
2022/04/20 01:43:52;;;;;;;2.47;2.27;;;8.30;99.90;;;;;;5038907;28;20517;-74
2022/04/20 01:46:19;;;;;;;6.67;1.97;;;8.60;99.90;;;;;;5033216;28;22022;-74
2022/04/20 01:48:46;;;;;;;2.00;1.77;;;8.70;99.90;;;;;;5034110;28;21049;-74
2022/04/20 01:54:01;;;;;;;3.20;1.80;;;8.90;99.90;;;;;;5032281;28;20412;-75
2022/04/20 01:56:28;;;;;;;4.10;2.17;;;9.00;99.90;;;;;;5020943;28;20479;-75
2022/04/20 01:58:55;;;;;;;3.43;2.30;;;9.10;99.90;;;;;;5026310;28;20439;-75
2022/04/20 02:04:06;;;;;;;2.70;2.30;;;8.90;99.90;;;;;;5030074;28;20454;-75
2022/04/20 02:06:33;;;;;;;6.33;2.93;;;8.90;99.90;;;;;;5031954;28;20497;-75
2022/04/20 02:09:09;;;;;;;2.40;2.07;;;8.90;99.90;;;;;;5029941;28;20514;-73
2022/04/20 02:11:36;;;;;;;4.70;1.70;;;8.80;99.90;;;;;;5025888;28;20438;-73
2022/04/20 02:14:03;;;;;;;3.00;1.90;;;8.70;99.90;;;;;;5035752;28;20456;-73
2022/04/20 02:16:29;;;;;;;4.40;2.60;;;8.60;99.90;;;;;;5032927;28;20984;-73
2022/04/20 02:18:59;;;;;;;6.73;2.00;;;8.60;99.90;;;;;;5021842;28;20907;-74
2022/04/20 02:21:26;;;;;;;4.27;2.57;;;8.70;99.90;;;;;;5027071;28;20698;-74
2022/04/20 02:23:58;;;;;;;2.33;2.13;;;8.70;99.90;;;;;;5027242;28;21200;-73
2022/04/20 02:26:26;;;;;;;3.40;1.90;;;8.70;99.90;;;;;;5021389;28;20863;-73
2022/04/20 02:28:52;;;;;;;2.77;1.93;;;8.70;99.90;;;;;;5025788;28;20489;-73
2022/04/20 02:31:19;;;;;;;2.67;2.47;;;8.60;99.90;;;;;;5022011;28;20506;-73
2022/04/20 02:33:46;;;;;;;2.43;2.03;;;8.50;99.90;;;;;;5025637;28;20439;-73
2022/04/20 02:36:13;;;;;;;2.60;1.97;;;8.20;99.90;;;;;;5023506;28;20495;-73
2022/04/20 02:38:42;;;;;;;3.20;2.63;;;7.90;99.90;;;;;;5022013;28;20472;-74
2022/04/20 02:41:10;;;;;;;4.00;2.90;;;7.70;99.90;;;;;;5024699;28;20464;-73
2022/04/20 02:43:42;;;;;;;3.20;2.23;;;7.70;99.90;;;;;;5029461;28;20477;-73
2022/04/20 02:46:09;;;;;;;3.23;2.80;;;7.80;99.90;;;;;;5026761;28;20567;-74
2022/04/20 02:48:36;;;;;;;3.33;1.97;;;8.00;99.90;;;;;;5023771;28;20991;-74
2022/04/20 02:51:03;;;;;;;2.67;2.43;;;8.10;99.90;;;;;;5031065;28;20810;-73
2022/04/20 02:53:30;;;;;;;3.10;2.37;;;8.10;99.90;;;;;;5023875;28;20624;-74
2022/04/20 02:55:57;;;;;;;4.70;2.63;;;8.10;99.90;;;;;;5014044;28;20483;-73
2022/04/20 02:58:28;;;;;;;3.83;2.27;;;8.10;99.90;;;;;;5017325;28;20446;-74
2022/04/20 03:00:56;;;;;;;4.40;3.50;;;8.20;99.90;;;;;;5021180;28;20445;-73
2022/04/20 03:03:23;;;;;;;4.70;3.30;;;8.10;99.90;;;;;;5015958;28;20476;-74
2022/04/20 03:05:50;;;;;;;3.57;2.50;;;8.10;99.90;;;;;;5018668;28;20553;-73
2022/04/20 03:08:16;;;;;;;4.70;2.90;;;8.10;99.90;;;;;;5009678;28;20883;-74
2022/04/20 03:10:45;;;;;;;3.83;2.60;;;8.00;99.90;;;;;;5030490;28;21090;-73
2022/04/20 03:13:12;;;;;;;3.43;2.30;;;7.90;99.90;;;;;;5032724;28;20908;-73
2022/04/20 03:15:39;;;;;;;5.33;3.10;;;7.60;99.90;;;;;;5033652;28;20464;-74
2022/04/20 03:18:08;;;;;;;4.00;2.67;;;7.30;99.90;;;;;;5023712;28;20517;-73
2022/04/20 03:20:34;;;;;;;3.67;2.93;;;7.50;99.90;;;;;;5021536;28;20435;-73
2022/04/20 03:23:07;;;;;;;3.77;3.00;;;7.70;99.90;;;;;;5017958;28;21598;-73
2022/04/20 03:25:34;;;;;;;4.27;2.90;;;7.80;99.90;;;;;;5023148;28;20499;-74
2022/04/20 03:28:01;;;;;;;4.10;2.87;;;7.70;99.90;;;;;;5018168;28;20462;-74
2022/04/20 03:30:29;;;;;;;4.27;2.40;;;7.80;99.90;;;;;;5021424;28;20520;-75
2022/04/20 03:32:56;;;;;;;2.50;2.10;;;7.80;99.90;;;;;;5019199;28;20444;-74
2022/04/20 03:35:24;;;;;;;4.20;2.40;;;7.70;99.90;;;;;;5024266;28;22177;-74
2022/04/20 03:37:50;;;;;;;4.60;3.07;;;7.60;99.90;;;;;;5020116;28;20474;-73
2022/04/20 03:40:17;;;;;;;7.17;4.30;;;7.50;99.90;;;;;;5016749;28;20430;-75
2022/04/20 03:42:44;;;;;;;4.50;3.80;;;7.50;99.90;;;;;;5015835;28;20511;-74
2022/04/20 03:45:10;;;;;;;3.00;2.37;;;7.60;99.90;;;;;;5017390;28;20502;-75
2022/04/20 03:47:38;;;;;;;4.33;2.80;;;7.60;99.90;;;;;;5026275;28;21999;-75
2022/04/20 03:50:06;;;;;;;6.30;3.73;;;7.60;99.90;;;;;;5016714;28;20618;-74
2022/04/20 03:52:33;;;;;;;5.07;3.10;;;7.60;99.90;;;;;;5002875;28;20589;-74
2022/04/20 03:55:00;;;;;;;4.93;3.20;;;7.60;99.90;;;;;;5027119;28;21105;-74
2022/04/20 03:57:27;;;;;;;3.17;2.87;;;7.50;99.90;;;;;;5034308;28;20491;-74
2022/04/20 03:59:54;;;;;;;6.40;3.07;;;7.50;99.90;;;;;;5017935;28;20438;-74
2022/04/20 04:02:21;;;;;;;5.53;2.83;;;7.50;99.90;;;;;;5014926;28;21197;-75
2022/04/20 04:04:48;;;;;;;9.13;3.23;;;7.40;99.90;;;;;;5022134;28;20479;-75
2022/04/20 04:07:15;;;;;;;5.63;3.10;;;7.40;99.90;;;;;;5029607;28;20510;-74
2022/04/20 04:09:43;;;;;;;6.97;3.10;;;7.30;99.90;;;;;;5028653;28;20995;-75
2022/04/20 04:12:10;;;;;;;9.80;3.40;;;7.30;99.90;;;;;;5033569;28;21051;-75
2022/04/20 04:14:40;;;;;;;7.10;3.50;;;7.30;99.90;;;;;;5032223;28;20437;-75
2022/04/20 04:17:07;;;;;;;8.57;5.70;;;7.20;99.90;;;;;;5026948;28;20547;-74
2022/04/20 04:19:35;;;;;;;7.83;2.90;;;7.20;99.90;;;;;;5025878;28;20468;-74
2022/04/20 04:22:02;;;;;;;4.87;3.90;;;7.20;99.90;;;;;;5033512;28;20435;-75
2022/04/20 04:24:39;;;;;;;4.87;3.47;;;7.20;99.90;;;;;;5028965;28;20455;-74
2022/04/20 04:27:08;;;;;;;4.43;2.90;;;7.20;99.90;;;;;;5030250;28;20483;-75
2022/04/20 04:29:36;;;;;;;4.80;3.50;;;7.20;99.90;;;;;;5021235;28;22740;-74
2022/04/20 04:32:03;;;;;;;4.20;2.60;;;7.20;99.90;;;;;;5029819;28;20451;-74
2022/04/20 04:34:30;;;;;;;4.17;3.43;;;7.20;99.90;;;;;;5026005;28;20463;-75
2022/04/20 04:36:57;;;;;;;6.03;2.80;;;7.20;99.90;;;;;;5029687;28;20492;-75
2022/04/20 04:39:28;;;;;;;3.87;2.70;;;7.20;99.90;;;;;;5030691;28;20457;-74
2022/04/20 04:41:59;;;;;;;16.13;3.03;;;7.10;99.90;;;;;;5019450;22;20492;-72
2022/04/20 04:44:27;;;;;;;3.90;3.40;;;7.10;99.90;;;;;;5005359;28;20464;-72
2022/04/20 04:49:38;;;;;;;4.33;2.27;;;7.10;99.90;;;;;;5018086;28;20910;-72
2022/04/20 04:52:11;;;;;;;7.00;3.30;;;7.00;99.90;;;;;;5021241;28;20543;-71
2022/04/20 04:54:40;;;;;;;5.97;2.83;;;7.10;99.90;;;;;;5023797;28;20958;-72
2022/04/20 04:57:07;;;;;;;7.33;3.67;;;7.10;99.90;;;;;;5024284;28;20879;-72
2022/04/20 04:59:36;;;;;;;5.53;2.80;;;7.10;99.90;;;;;;5021796;28;20431;-72
2022/04/20 05:02:02;;;;;;;11.07;4.57;;;7.20;99.90;;;;;;5019864;28;20492;-72
2022/04/20 05:04:38;;;;;;;3.47;2.80;;;7.20;99.90;;;;;;5019300;28;20485;-72
2022/04/20 05:07:05;;;;;;;11.30;4.53;;;7.30;99.90;;;;;;5022381;28;20435;-73
2022/04/20 05:09:32;;;;;;;3.40;2.83;;;7.40;99.90;;;;;;5016113;28;20473;-73
2022/04/20 05:11:59;;;;;;;6.80;2.80;;;7.30;99.90;;;;;;5023194;28;20954;-72
2022/04/20 05:14:26;;;;;;;10.23;3.40;;;7.40;99.90;;;;;;5019374;28;20688;-72
2022/04/20 05:16:55;;;;;;;4.37;3.50;;;7.70;99.90;;;;;;5023782;28;20923;-73
2022/04/20 05:19:24;;;;;;;4.50;2.80;;;8.10;99.90;;;;;;5024429;28;20792;-73
2022/04/20 05:21:51;;;;;;;6.73;3.47;;;8.30;99.90;;;;;;5016301;28;20489;-73
2022/04/20 05:24:17;;;;;;;5.67;3.20;;;8.70;99.90;;;;;;5018724;28;20477;-73
2022/04/20 05:26:44;;;;;;;5.50;2.07;;;9.00;99.90;;;;;;5019790;28;20440;-72
2022/04/20 05:29:12;;;;;;;5.17;2.57;;;9.20;99.90;;;;;;5023731;28;20505;-72
2022/04/20 05:31:38;;;;;;;6.77;2.50;;;9.50;99.90;;;;;;5022332;28;20926;-72
2022/04/20 05:34:06;;;;;;;12.00;4.23;;;9.70;99.90;;;;;;5027487;28;21056;-72
2022/04/20 05:42:01;;;;;;;10.73;5.10;;;10.50;99.90;;;;;;5019065;28;20475;-73
2022/04/20 05:44:28;;;;;;;11.53;3.03;;;10.90;99.90;;;;;;5010018;28;20463;-73
2022/04/20 05:46:55;;;;;;;7.57;4.30;;;11.20;99.90;;;;;;5022036;28;20783;-73
2022/04/20 05:49:24;;;;;;;5.87;3.60;;;11.60;99.90;;;;;;5025965;28;20468;-73
2022/04/20 05:51:51;;;;;;;8.00;2.80;;;12.00;99.90;;;;;;5023131;28;20576;-73
2022/04/20 05:54:20;;;;;;;23.63;4.37;;;12.60;99.90;;;;;;5017785;28;20463;-73
2022/04/20 05:56:46;;;;;;;9.50;3.63;;;12.90;99.90;;;;;;5022935;28;20836;-72
2022/04/20 05:59:13;;;;;;;3.80;2.57;;;12.90;99.90;;;;;;5022071;28;20609;-72
2022/04/20 06:01:40;;;;;;;6.80;3.20;;;12.70;99.90;;;;;;5021601;28;20568;-73
2022/04/20 06:04:06;;;;;;;5.07;3.20;;;12.70;99.90;;;;;;5021882;28;20799;-73
2022/04/20 06:06:34;;;;;;;2.83;2.50;;;12.90;99.90;;;;;;5020964;28;20888;-73
2022/04/20 06:09:01;;;;;;;6.10;3.43;;;13.10;99.90;;;;;;5015586;28;20988;-73
2022/04/20 06:11:29;;;;;;;12.97;4.70;;;13.10;99.90;;;;;;5017363;28;20485;-73
2022/04/20 06:13:56;;;;;;;5.53;2.87;;;13.10;99.90;;;;;;5022394;28;20515;-73
2022/04/20 06:16:22;;;;;;;7.73;4.00;;;13.20;99.90;;;;;;5021449;28;20464;-73
2022/04/20 06:18:49;;;;;;;5.40;3.83;;;13.40;99.90;;;;;;5024600;28;20514;-72
2022/04/20 06:21:16;;;;;;;6.40;2.70;;;13.80;99.90;;;;;;5015937;28;20526;-72
2022/04/20 06:23:47;;;;;;;4.00;2.50;;;14.20;99.60;;;;;;5022490;28;20463;-73
2022/04/20 06:26:14;;;;;;;8.20;3.13;;;14.20;98.00;;;;;;5028243;28;21569;-73
2022/04/20 06:28:44;;;;;;;4.10;2.97;;;14.10;98.50;;;;;;5027156;28;20439;-73
2022/04/20 06:31:15;;;;;;;5.13;3.73;;;14.30;98.50;;;;;;5026209;28;20535;-72
2022/04/20 06:33:43;;;;;;;5.50;3.70;;;14.80;97.90;;;;;;5025144;28;20431;-72
2022/04/20 06:36:10;;;;;;;7.53;3.90;;;15.10;96.80;;;;;;5023221;28;20464;-74
2022/04/20 06:38:37;;;;;;;4.77;3.60;;;15.30;96.30;;;;;;5014985;28;20452;-73
2022/04/20 06:41:05;;;;;;;6.10;4.00;;;15.30;95.90;;;;;;5019516;28;20484;-73
2022/04/20 06:43:32;;;;;;;5.03;3.27;;;15.40;95.40;;;;;;5020620;28;20440;-73
2022/04/20 06:45:59;;;;;;;6.27;3.20;;;15.20;95.00;;;;;;5020147;28;20460;-73
2022/04/20 06:48:27;;;;;;;3.87;2.60;;;15.00;94.80;;;;;;5023235;28;20942;-74
2022/04/20 06:50:53;;;;;;;4.23;3.03;;;14.90;94.40;;;;;;5021010;28;20936;-72
2022/04/20 06:58:50;;;;;;;5.07;2.97;;;15.30;94.50;;;;;;5016806;28;20516;-72
2022/04/20 07:01:17;;;;;;;8.23;3.60;;;15.90;93.90;;;;;;5017094;28;20488;-73
2022/04/20 07:03:53;;;;;;;5.10;3.70;;;16.10;92.80;;;;;;5017167;28;20460;-73
2022/04/20 07:06:20;;;;;;;8.00;3.73;;;16.30;92.90;;;;;;5028259;28;20966;-73
2022/04/20 07:08:48;;;;;;;4.93;3.97;;;16.80;92.30;;;;;;5018030;28;20833;-73
2022/04/20 07:11:16;;;;;;;4.43;4.00;;;17.20;90.50;;;;;;5007105;28;20564;-74
2022/04/20 07:13:43;;;;;;;7.13;3.70;;;17.10;90.60;;;;;;5023167;28;20473;-74
2022/04/20 07:16:11;;;;;;;6.60;4.13;;;17.30;89.70;;;;;;5018754;28;21046;-73
2022/04/20 07:18:38;;;;;;;3.90;2.93;;;18.00;86.60;;;;;;5021384;28;20455;-73
2022/04/20 07:21:09;;;;;;;5.90;3.60;;;18.70;83.90;;;;;;5019943;28;20484;-74
2022/04/20 07:23:36;;;;;;;5.67;3.93;;;18.80;82.70;;;;;;5017364;28;20469;-74
2022/04/20 07:26:05;;;;;;;6.93;3.60;;;19.10;81.60;;;;;;5026686;28;20507;-73
2022/04/20 07:28:34;;;;;;;7.10;3.70;;;18.70;80.50;;;;;;5014851;28;20462;-74
2022/04/20 07:31:02;;;;;;;4.20;3.33;;;19.10;76.80;;;;;;5020953;28;20481;-72
2022/04/20 07:33:29;;;;;;;3.63;3.30;;;19.10;76.40;;;;;;5025822;28;20881;-74
2022/04/20 07:35:56;;;;;;;6.87;3.30;;;19.10;74.90;;;;;;5019447;28;20477;-74
2022/04/20 07:38:27;;;;;;;7.90;3.10;;;19.40;77.20;;;;;;5021419;28;20518;-73
2022/04/20 07:40:53;;;;;;;4.90;2.53;;;19.70;70.70;;;;;;5011245;28;20534;-72
2022/04/20 07:43:21;;;;;;;8.10;3.20;;;19.30;71.30;;;;;;5018021;28;20470;-73
2022/04/20 07:45:49;;;;;;;4.70;3.40;;;19.60;74.30;;;;;;5024185;28;20826;-73
2022/04/20 07:48:16;;;;;;;4.53;3.33;;;19.80;72.50;;;;;;5015670;28;20462;-74
2022/04/20 07:50:43;;;;;;;4.10;3.20;;;19.80;71.80;;;;;;5020204;28;20487;-73
2022/04/20 07:53:13;;;;;;;7.00;3.10;;;19.90;70.10;;;;;;5026612;28;20473;-73
2022/04/20 07:55:44;;;;;;;4.30;3.63;;;19.80;71.00;;;;;;5020336;28;20463;-72
2022/04/20 07:58:14;;;;;;;4.67;3.03;;;20.00;68.70;;;;;;5020482;28;20457;-73
2022/04/20 08:00:43;;;;;;;6.53;3.37;;;19.90;68.80;;;;;;5012690;28;20481;-73
2022/04/20 08:03:14;;;;;;;4.50;3.17;;;20.10;67.00;;;;;;5017949;28;20488;-73
2022/04/20 08:05:42;;;;;;;4.87;3.00;;;20.40;68.90;;;;;;5019874;28;20487;-73
2022/04/20 08:08:11;;;;;;;5.87;2.80;;;20.90;66.50;;;;;;5021500;28;20454;-74
2022/04/20 08:10:38;;;;;;;5.83;5.00;;;21.20;63.40;;;;;;5021887;28;20895;-74
2022/04/20 08:15:46;;;;;;;4.40;3.23;;;20.90;61.80;;;;;;5021612;28;20476;-73
2022/04/20 08:18:14;;;;;;;10.17;4.27;;;20.60;61.40;;;;;;5017938;28;20465;-73
2022/04/20 08:20:40;;;;;;;3.53;3.23;;;20.80;63.80;;;;;;5020191;28;20483;-73
2022/04/20 08:23:07;;;;;;;6.50;3.87;;;21.60;62.00;;;;;;5023456;28;21199;-74
2022/04/20 08:25:34;;;;;;;3.40;3.10;;;22.10;59.20;;;;;;5023309;28;21014;-73
2022/04/20 08:28:01;;;;;;;5.70;3.27;;;21.60;60.50;;;;;;5020565;28;20476;-73
2022/04/20 08:30:28;;;;;;;5.83;3.57;;;21.60;58.90;;;;;;5024203;28;21005;-73
2022/04/20 08:32:55;;;;;;;5.73;2.83;;;21.00;58.90;;;;;;5024058;28;20463;-74
2022/04/20 08:35:26;;;;;;;6.53;3.30;;;21.20;60.30;;;;;;5025469;28;20461;-74
2022/04/20 08:37:53;;;;;;;4.77;3.60;;;20.90;59.50;;;;;;5023580;28;20473;-74
2022/04/20 08:40:20;;;;;;;3.40;3.10;;;21.60;60.00;;;;;;5017575;28;20543;-73
2022/04/20 08:42:50;;;;;;;7.13;3.87;;;22.40;59.20;;;;;;5014723;28;20876;-73
2022/04/20 08:45:21;;;;;;;3.70;3.37;;;22.50;57.60;;;;;;5018687;28;21171;-74
2022/04/20 08:47:51;;;;;;;6.80;3.70;;;23.30;57.00;;;;;;5016814;28;20460;-74
2022/04/20 08:50:19;;;;;;;4.23;3.60;;;23.10;54.80;;;;;;5020644;28;20738;-73
2022/04/20 08:52:50;;;;;;;5.40;2.80;;;22.60;56.50;;;;;;5021442;28;20553;-73
2022/04/20 08:55:18;;;;;;;3.13;2.83;;;22.60;55.60;;;;;;5022971;28;20558;-73
2022/04/20 08:57:46;;;;;;;2.93;2.63;;;22.30;55.10;;;;;;5020585;28;21040;-73
2022/04/20 09:00:19;;;;;;;4.03;3.37;;;22.60;54.30;;;;;;5012558;28;20486;-72
2022/04/20 09:02:46;;;;;;;6.73;3.70;;;22.80;55.00;;;;;;5018693;28;20541;-72
2022/04/20 09:05:14;;;;;;;4.50;3.17;;;23.40;54.80;;;;;;5018394;28;20482;-72
2022/04/20 09:07:40;;;;;;;9.30;4.17;;;23.80;53.20;;;;;;5014510;28;20595;-73
2022/04/20 09:10:10;;;;;;;4.00;3.17;;;24.10;53.10;;;;;;5014529;28;21033;-73
2022/04/20 09:12:41;;;;;;;3.50;3.20;;;23.50;51.10;;;;;;5021469;28;20886;-73
2022/04/20 09:15:09;;;;;;;4.27;2.80;;;23.50;52.20;;;;;;5012753;28;20548;-73
2022/04/20 09:17:41;;;;;;;2.30;2.10;;;22.70;52.30;;;;;;5020492;28;20555;-72
2022/04/20 09:20:09;;;;;;;7.80;2.83;;;23.20;50.60;;;;;;5017547;28;20489;-74
2022/04/20 09:22:36;;;;;;;4.40;2.67;;;23.40;51.00;;;;;;5010535;28;20544;-75
2022/04/20 09:25:07;;;;;;;3.90;3.20;;;23.60;49.00;;;;;;5017460;28;20605;-74
2022/04/20 09:27:37;;;;;;;4.03;2.87;;;23.80;48.40;;;;;;5020337;28;20819;-71
2022/04/20 09:30:09;;;;;;;2.53;2.10;;;23.20;48.70;;;;;;5022105;28;20481;-72
2022/04/20 09:32:38;;;;;;;2.73;2.00;;;23.70;48.10;;;;;;5019629;28;20454;-74
2022/04/20 09:35:07;;;;;;;3.03;2.50;;;25.00;47.20;;;;;;5011838;28;25100;-72
2022/04/20 09:37:34;;;;;;;5.13;2.00;;;24.40;47.70;;;;;;5022264;28;20462;-72
2022/04/20 09:40:04;;;;;;;2.50;2.30;;;24.30;47.30;;;;;;5022118;28;20475;-73
2022/04/20 09:42:31;;;;;;;3.33;2.53;;;23.90;46.90;;;;;;5017581;28;20464;-73
2022/04/20 09:45:01;;;;;;;3.77;2.67;;;23.70;46.40;;;;;;5020644;28;20462;-72
2022/04/20 09:50:19;;;;;;;2.33;2.07;;;23.50;47.90;;;;;;5017753;28;21000;-73
2022/04/20 09:52:48;;;;;;;2.80;2.60;;;24.30;47.20;;;;;;5021382;28;20483;-74
2022/04/20 09:55:18;;;;;;;3.60;2.30;;;24.90;47.10;;;;;;5027056;28;20470;-73
2022/04/20 09:57:46;;;;;;;10.07;3.27;;;25.50;46.70;;;;;;5023389;28;20466;-73
2022/04/20 10:00:16;;;;;;;3.50;2.80;;;25.20;46.70;;;;;;5019292;28;20485;-73
2022/04/20 10:02:47;;;;;;;13.20;2.17;;;25.40;46.90;;;;;;5006655;28;20461;-73
2022/04/20 10:05:15;;;;;;;2.70;2.50;;;25.60;45.90;;;;;;5019466;28;20505;-72
2022/04/20 10:07:41;;;;;;;8.00;3.10;;;24.80;45.50;;;;;;5021004;28;20458;-73
2022/04/20 10:10:09;;;;;;;4.60;2.83;;;24.30;47.20;;;;;;5018008;28;20491;-73
2022/04/20 10:12:38;;;;;;;5.67;2.83;;;24.40;46.80;;;;;;5024782;28;20448;-73
2022/04/20 10:17:56;;;;;;;2.50;2.30;;;24.80;47.00;;;;;;5021051;28;20449;-71
2022/04/20 10:20:24;;;;;;;4.20;3.50;;;24.70;47.50;;;;;;5015579;28;20555;-72
2022/04/20 10:22:52;;;;;;;4.37;2.70;;;25.00;46.10;;;;;;5027350;28;20467;-72
2022/04/20 10:25:19;;;;;;;4.43;2.80;;;24.50;46.20;;;;;;5026356;28;20481;-75
2022/04/20 10:27:56;;;;;;;6.40;3.70;;;25.00;46.40;;;;;;5022338;28;20458;-74
2022/04/20 10:30:28;;;;;;;7.40;2.80;;;25.30;46.40;;;;;;5011246;28;20480;-73
2022/04/20 10:33:02;;;;;;;6.07;3.10;;;26.30;47.10;;;;;;5017463;28;21057;-73
2022/04/20 10:35:29;;;;;;;2.47;2.27;;;26.50;45.10;;;;;;5020394;28;20529;-74
2022/04/20 10:38:09;;;;;;;5.80;3.63;;;26.20;43.80;;;;;;5018656;28;20977;-73
2022/04/20 10:40:55;;;;;;;3.33;3.03;;;26.30;44.80;;;;;;5017686;28;20498;-73
2022/04/20 10:43:23;;;;;;;3.70;2.70;;;25.20;44.90;;;;;;5025397;22;21027;-76
2022/04/20 10:46:14;;;;;;;3.80;3.10;;;26.10;44.80;;;;;;5014400;28;20754;-75
2022/04/20 10:48:58;;;;;;;2.60;2.37;;;26.10;44.80;;;;;;5016413;28;20461;-75
2022/04/20 10:51:36;;;;;;;2.80;2.60;;;26.30;44.20;;;;;;5013699;28;20617;-74
2022/04/20 10:54:24;;;;;;;9.83;3.47;;;27.10;43.70;;;;;;4993002;28;20462;-76
2022/04/20 10:57:10;;;;;;;3.37;3.07;;;25.60;45.00;;;;;;4997273;28;20487;-77
2022/04/20 10:59:38;;;;;;;3.33;3.03;;;26.30;45.90;;;;;;4997795;28;21090;-74
2022/04/20 11:02:11;;;;;;;2.63;2.37;;;28.10;45.80;;;;;;4996930;28;20486;-76
2022/04/20 11:04:42;;;;;;;5.97;4.67;;;27.10;42.70;;;;;;5003838;28;20479;-75
2022/04/20 11:07:34;;;;;;;3.70;2.77;;;26.00;43.00;;;;;;5004647;28;20568;-75
2022/04/20 11:10:11;;;;;;;3.20;2.50;;;26.40;42.80;;;;;;5001603;28;20957;-75
2022/04/20 11:18:40;;;;;;;3.33;2.90;;;24.50;44.70;;;;;;5000551;28;20447;-76
2022/04/20 11:21:17;;;;;;;4.70;3.10;;;25.20;44.10;;;;;;4998288;28;21006;-74
2022/04/20 11:24:03;;;;;;;3.37;2.90;;;24.90;44.40;;;;;;5000098;28;20494;-75
2022/04/20 11:26:36;;;;;;;4.13;3.73;;;26.30;44.40;;;;;;5001798;28;20908;-75
2022/04/20 11:29:11;;;;;;;4.17;3.30;;;27.30;43.30;;;;;;4996025;28;20475;-74
2022/04/20 11:31:40;;;;;;;2.50;2.03;;;28.30;43.00;;;;;;4996899;28;20594;-74
2022/04/20 11:34:09;;;;;;;4.80;2.77;;;27.50;41.40;;;;;;5003224;28;20461;-75
2022/04/20 11:36:43;;;;;;;3.40;2.17;;;25.50;42.80;;;;;;4999371;28;20456;-75
2022/04/20 11:39:13;;;;;;;3.07;2.77;;;25.60;42.70;;;;;;5001129;28;20479;-74
2022/04/20 11:41:45;;;;;;;4.10;2.83;;;26.20;43.30;;;;;;4994193;28;20471;-75
2022/04/20 11:44:25;;;;;;;2.90;2.60;;;27.30;42.80;;;;;;4998254;28;20538;-76
2022/04/20 11:46:57;;;;;;;2.57;2.20;;;26.50;42.00;;;;;;4997441;28;20913;-75
2022/04/20 11:49:31;;;;;;;2.10;1.90;;;26.20;43.10;;;;;;5001943;28;20464;-75
2022/04/20 11:52:03;;;;;;;2.90;2.50;;;25.60;43.20;;;;;;4992847;28;21374;-76
2022/04/20 11:54:29;;;;;;;3.10;2.50;;;26.10;43.20;;;;;;4997994;28;20459;-75
2022/04/20 11:56:56;;;;;;;3.93;2.50;;;25.40;44.00;;;;;;4996647;28;20459;-74
2022/04/20 11:59:24;;;;;;;5.27;3.47;;;25.80;43.40;;;;;;4998513;28;21010;-74
2022/04/20 12:01:54;;;;;;;3.03;2.83;;;25.00;43.60;;;;;;4995562;28;20870;-75
2022/04/20 12:04:22;;;;;;;3.70;3.33;;;24.80;45.40;;;;;;4999956;28;20459;-73
2022/04/20 12:06:52;;;;;;;3.60;3.30;;;26.30;43.80;;;;;;5000792;28;20491;-76
2022/04/20 12:09:22;;;;;;;6.03;4.63;;;26.50;43.50;;;;;;5003134;28;20467;-73
2022/04/20 12:11:54;;;;;;;2.80;2.37;;;26.80;43.40;;;;;;4987761;28;20494;-74
2022/04/20 12:14:23;;;;;;;3.07;2.83;;;27.00;42.90;;;;;;4998466;28;20850;-75
2022/04/20 12:16:51;;;;;;;3.90;3.30;;;27.10;42.50;;;;;;4999919;28;20576;-75
2022/04/20 12:19:19;;;;;;;5.27;3.63;;;26.50;42.60;;;;;;5002748;28;20968;-74
2022/04/20 12:21:47;;;;;;;5.10;3.47;;;25.80;43.70;;;;;;5001857;28;20459;-75
2022/04/20 12:24:25;;;;;;;3.90;2.73;;;26.20;44.70;;;;;;5000641;28;20475;-75
2022/04/20 12:26:54;;;;;;;3.30;3.00;;;26.40;44.20;;;;;;5001467;28;20483;-75
2022/04/20 12:29:26;;;;;;;5.20;3.57;;;27.20;43.80;;;;;;5003258;28;20479;-75
2022/04/20 12:31:54;;;;;;;3.20;2.87;;;28.10;44.10;;;;;;4998667;28;20484;-75
2022/04/20 12:34:23;;;;;;;3.03;2.83;;;28.10;42.30;;;;;;4998827;28;20464;-73
2022/04/20 12:36:59;;;;;;;3.30;3.00;;;27.40;42.40;;;;;;4999220;28;20964;-75
2022/04/20 12:39:29;;;;;;;5.47;3.93;;;25.20;44.10;;;;;;4997562;28;20552;-75
2022/04/20 12:41:58;;;;;;;4.00;2.77;;;24.90;45.00;;;;;;4998360;28;20813;-75
2022/04/20 12:44:51;;;;;;;3.27;3.03;;;25.80;44.50;;;;;;4999771;28;20471;-75
2022/04/20 12:47:39;;;;;;;4.30;4.00;;;25.40;44.90;;;;;;5001806;28;20492;-74
2022/04/20 12:50:17;;;;;;;4.07;3.60;;;25.50;44.60;;;;;;4997226;28;20459;-75
2022/04/20 12:52:53;;;;;;;3.50;3.20;;;26.40;44.90;;;;;;4997575;28;20566;-75
2022/04/20 12:55:21;;;;;;;3.77;3.47;;;26.50;44.00;;;;;;5000140;28;20483;-76
2022/04/20 13:03:35;;;;;;;4.30;3.13;;;27.70;44.30;;;;;;4991967;28;20516;-76
2022/04/20 13:06:02;;;;;;;7.30;3.73;;;27.50;43.70;;;;;;4998244;28;20477;-74
2022/04/20 13:08:28;;;;;;;4.07;3.03;;;27.70;43.30;;;;;;4999012;28;20997;-75
2022/04/20 13:10:58;;;;;;;3.97;3.00;;;27.00;43.90;;;;;;4997074;28;20584;-75
2022/04/20 13:13:25;;;;;;;3.73;3.20;;;25.90;44.00;;;;;;4999424;28;20502;-76
2022/04/20 13:15:52;;;;;;;3.23;2.93;;;26.30;45.10;;;;;;4992445;28;20459;-75
2022/04/20 13:18:19;;;;;;;3.57;3.27;;;26.90;45.90;;;;;;4998335;28;20463;-75
2022/04/20 13:20:46;;;;;;;3.30;3.00;;;27.00;44.00;;;;;;4997125;28;20459;-75
2022/04/20 13:23:13;;;;;;;5.13;2.57;;;26.90;43.90;;;;;;4995919;28;20478;-75
2022/04/20 13:28:26;;;;;;;3.60;3.03;;;26.20;44.10;;;;;;4995556;28;20455;-75
2022/04/20 13:30:53;;;;;;;5.70;4.20;;;24.90;45.50;;;;;;4992961;28;20460;-73
2022/04/20 13:33:20;;;;;;;4.83;4.43;;;24.80;46.40;;;;;;5000244;28;20486;-73
2022/04/20 13:35:50;;;;;;;9.37;4.70;;;24.80;45.80;;;;;;4997558;28;20882;-75
2022/04/20 13:38:17;;;;;;;3.23;2.93;;;25.70;46.10;;;;;;4995339;28;20481;-73
2022/04/20 13:40:43;;;;;;;5.57;3.60;;;26.30;44.90;;;;;;4992938;28;20472;-73